createdAt,value
2018-06-05T00:01:17.152Z,101315.37
2018-06-05T00:03:46.421Z,101315.23
2018-06-05T00:06:15.672Z,101321.74
2018-06-05T00:08:44.637Z,101313.73
2018-06-05T00:11:13.949Z,101308.22
2018-06-05T00:13:43.114Z,101312.91
2018-06-05T00:16:12.081Z,101311.54
2018-06-05T00:18:40.945Z,101314.14
2018-06-05T00:21:10.130Z,101305.82
2018-06-05T00:23:39.609Z,101309.34
2018-06-05T00:26:08.806Z,101313.70
2018-06-05T00:28:37.842Z,101317.84
2018-06-05T00:31:07.509Z,101307.53
2018-06-05T00:33:37.168Z,101304.69
2018-06-05T00:36:06.292Z,101304.90
2018-06-05T00:38:35.442Z,101302.40
2018-06-05T00:41:04.627Z,101306.75
2018-06-05T00:43:33.813Z,101308.35
2018-06-05T00:46:02.709Z,101309.62
2018-06-05T00:48:31.892Z,101313.02
2018-06-05T00:51:01.484Z,101309.25
2018-06-05T00:53:30.651Z,101310.95
2018-06-05T00:56:00.119Z,101306.47
2018-06-05T00:58:29.353Z,101309.90
2018-06-05T01:00:58.331Z,101305.11
2018-06-05T01:03:27.378Z,101304.18
2018-06-05T01:05:56.501Z,101305.66
2018-06-05T01:08:25.750Z,101300.63
2018-06-05T01:10:54.962Z,101304.93
2018-06-05T01:13:24.125Z,101305.52
2018-06-05T01:15:53.005Z,101300.95
2018-06-05T01:18:22.595Z,101298.32
2018-06-05T01:20:51.466Z,101301.37
2018-06-05T01:23:20.790Z,101294.08
2018-06-05T01:25:50.179Z,101292.22
2018-06-05T01:28:19.572Z,101290.31
2018-06-05T01:30:48.687Z,101290.20
2018-06-05T01:33:17.709Z,101288.16
2018-06-05T01:35:47.182Z,101294.52
2018-06-05T01:38:16.018Z,101290.65
2018-06-05T01:40:45.843Z,101291.19
2018-06-05T01:43:15.105Z,101290.37
2018-06-05T01:45:45.008Z,101286.02
2018-06-05T01:48:14.557Z,101283.17
2018-06-05T01:50:43.630Z,101281.80
2018-06-05T01:53:13.372Z,101283.03
2018-06-05T01:55:42.354Z,101285.08
2018-06-05T01:58:11.530Z,101285.73
2018-06-05T02:00:40.493Z,101281.97
2018-06-05T02:03:09.939Z,101280.50
2018-06-05T02:05:39.094Z,101286.55
2018-06-05T02:08:08.551Z,101283.57
2018-06-05T02:10:37.449Z,101284.45
2018-06-05T02:13:06.643Z,101283.67
2018-06-05T02:15:35.832Z,101281.95
2018-06-05T02:18:04.948Z,101289.00
2018-06-05T02:20:34.015Z,101292.22
2018-06-05T02:23:02.815Z,101289.29
2018-06-05T02:25:31.930Z,101287.09
2018-06-05T02:28:01.416Z,101282.34
2018-06-05T02:30:30.923Z,101278.63
2018-06-05T02:33:00.582Z,101282.47
2018-06-05T02:35:29.445Z,101286.57
2018-06-05T02:37:58.339Z,101280.86
2018-06-05T02:40:27.470Z,101289.47
2018-06-05T02:42:56.421Z,101287.16
2018-06-05T02:45:25.311Z,101286.67
2018-06-05T02:47:54.193Z,101287.11
2018-06-05T02:50:23.094Z,101284.02
2018-06-05T02:52:52.228Z,101283.47
2018-06-05T02:55:21.125Z,101278.34
2018-06-05T02:57:49.969Z,101288.42
2018-06-05T03:00:18.786Z,101292.62
2018-06-05T03:02:51.457Z,101302.61
2018-06-05T03:05:20.284Z,101306.55
2018-06-05T03:07:49.523Z,101304.58
2018-06-05T03:10:18.665Z,101305.58
2018-06-05T03:12:47.607Z,101309.52
2018-06-05T03:15:17.411Z,101304.39
2018-06-05T03:17:46.336Z,101312.06
2018-06-05T03:20:16.115Z,101307.22
2018-06-05T03:22:45.304Z,101311.81
2018-06-05T03:25:14.801Z,101309.33
2018-06-05T03:27:43.675Z,101306.10
2018-06-05T03:30:12.981Z,101307.14
2018-06-05T03:32:42.096Z,101289.25
2018-06-05T03:35:11.278Z,101299.53
2018-06-05T03:37:40.821Z,101298.50
2018-06-05T03:40:09.613Z,101305.59
2018-06-05T03:42:38.812Z,101308.89
2018-06-05T03:45:08.578Z,101308.72
2018-06-05T03:47:37.990Z,101308.23
2018-06-05T03:50:07.383Z,101309.52
2018-06-05T03:52:36.480Z,101310.88
2018-06-05T03:55:06.021Z,101314.34
2018-06-05T03:57:35.247Z,101313.52
2018-06-05T04:00:04.049Z,101312.73
2018-06-05T04:02:33.167Z,101318.66
2018-06-05T04:05:02.549Z,101313.69
2018-06-05T04:07:31.777Z,101326.94
2018-06-05T04:10:01.240Z,101321.10
2018-06-05T04:12:30.435Z,101325.20
2018-06-05T04:14:59.573Z,101322.97
2018-06-05T04:17:28.381Z,101327.15
2018-06-05T04:19:57.776Z,101322.56
2018-06-05T04:22:26.898Z,101327.81
2018-06-05T04:24:56.124Z,101322.98
2018-06-05T04:27:25.260Z,101322.89
2018-06-05T04:29:54.382Z,101321.11
2018-06-05T04:32:23.623Z,101328.93
2018-06-05T04:34:52.754Z,101325.08
2018-06-05T04:37:22.276Z,101326.28
2018-06-05T04:39:51.087Z,101322.98
2018-06-05T04:42:20.296Z,101317.42
2018-06-05T04:44:49.402Z,101326.44
2018-06-05T04:47:18.232Z,101321.44
2018-06-05T04:49:48.803Z,101326.25
2018-06-05T04:52:17.971Z,101323.34
2018-06-05T04:54:47.042Z,101324.30
2018-06-05T04:57:15.895Z,101322.84
2018-06-05T04:59:45.053Z,101315.88
2018-06-05T05:02:14.617Z,101317.58
2018-06-05T05:04:50.270Z,101321.67
2018-06-05T05:07:19.111Z,101324.16
2018-06-05T05:09:47.933Z,101322.47
2018-06-05T05:12:17.367Z,101327.03
2018-06-05T05:14:46.243Z,101333.56
2018-06-05T05:17:15.074Z,101337.33
2018-06-05T05:19:43.918Z,101345.44
2018-06-05T05:22:13.464Z,101349.36
2018-06-05T05:24:42.393Z,101346.72
2018-06-05T05:27:11.770Z,101343.66
2018-06-05T05:29:41.513Z,101341.38
2018-06-05T05:32:10.617Z,101344.27
2018-06-05T05:34:39.754Z,101341.61
2018-06-05T05:37:08.874Z,101338.55
2018-06-05T05:39:38.174Z,101334.78
2018-06-05T05:42:07.233Z,101332.58
2018-06-05T05:44:36.890Z,101335.85
2018-06-05T05:47:05.840Z,101339.08
2018-06-05T05:49:35.103Z,101339.66
2018-06-05T05:52:04.023Z,101346.70
2018-06-05T05:54:33.158Z,101353.08
2018-06-05T05:57:02.741Z,101343.88
2018-06-05T05:59:31.576Z,101345.64
2018-06-05T06:02:00.879Z,101353.34
2018-06-05T06:04:29.917Z,101349.69
2018-06-05T06:06:59.449Z,101349.18
2018-06-05T06:09:28.629Z,101352.49
2018-06-05T06:11:57.488Z,101356.84
2018-06-05T06:14:26.649Z,101358.23
2018-06-05T06:16:55.811Z,101355.41
2018-06-05T06:19:24.856Z,101366.66
2018-06-05T06:21:53.760Z,101370.59
2018-06-05T06:24:22.726Z,101367.28
2018-06-05T06:26:51.696Z,101367.20
2018-06-05T06:29:20.636Z,101363.34
2018-06-05T06:31:49.538Z,101370.45
2018-06-05T06:34:18.413Z,101373.01
2018-06-05T06:36:47.904Z,101372.83
2018-06-05T06:39:17.159Z,101369.30
2018-06-05T06:41:46.484Z,101373.07
2018-06-05T06:44:15.328Z,101378.63
2018-06-05T06:46:44.213Z,101376.59
2018-06-05T06:49:13.754Z,101380.27
2018-06-05T06:51:43.003Z,101381.98
2018-06-05T06:54:12.829Z,101381.80
2018-06-05T06:56:41.934Z,101391.73
2018-06-05T06:59:11.360Z,101393.25
2018-06-05T07:01:40.775Z,101402.64
2018-06-05T07:04:10.523Z,101409.30
2018-06-05T07:06:39.327Z,101412.58
2018-06-05T07:09:09.283Z,101404.70
2018-06-05T07:11:38.607Z,101405.09
2018-06-05T07:14:08.102Z,101402.72
2018-06-05T07:16:37.499Z,101407.43
2018-06-05T07:19:06.627Z,101407.23
2018-06-05T07:21:35.978Z,101404.22
2018-06-05T07:24:05.217Z,101398.98
2018-06-05T07:26:34.316Z,101402.17
2018-06-05T07:29:03.748Z,101409.95
2018-06-05T07:31:33.044Z,101409.84
2018-06-05T07:34:02.115Z,101409.50
2018-06-05T07:36:31.099Z,101410.29
2018-06-05T07:39:00.403Z,101404.81
2018-06-05T07:41:29.539Z,101405.20
2018-06-05T07:43:58.978Z,101408.54
2018-06-05T07:46:27.991Z,101407.17
2018-06-05T07:48:57.476Z,101414.70
2018-06-05T07:51:26.580Z,101416.95
2018-06-05T07:53:55.382Z,101420.37
2018-06-05T07:56:24.486Z,101417.20
2018-06-05T07:58:53.327Z,101416.46
2018-06-05T08:01:22.191Z,101407.81
2018-06-05T08:03:51.257Z,101410.25
2018-06-05T08:06:20.280Z,101414.81
2018-06-05T08:08:49.930Z,101420.63
2018-06-05T08:11:19.633Z,101418.03
2018-06-05T08:13:49.059Z,101421.22
2018-06-05T08:16:18.563Z,101417.02
2018-06-05T08:18:47.378Z,101425.16
2018-06-05T08:21:17.168Z,101411.84
2018-06-05T08:23:46.380Z,101422.47
2018-06-05T08:26:15.431Z,101414.05
2018-06-05T08:28:44.387Z,101418.98
2018-06-05T08:31:13.758Z,101425.34
2018-06-05T08:33:42.874Z,101425.93
2018-06-05T08:36:11.744Z,101422.27
2018-06-05T08:38:40.953Z,101413.26
2018-06-05T08:41:10.035Z,101414.33
2018-06-05T08:43:39.276Z,101418.37
2018-06-05T08:46:08.401Z,101419.84
2018-06-05T08:48:37.892Z,101420.42
2018-06-05T08:51:07.622Z,101415.76
2018-06-05T08:53:36.760Z,101418.29
2018-06-05T08:56:05.948Z,101420.95
2018-06-05T08:58:35.625Z,101421.53
2018-06-05T09:01:05.173Z,101419.23
2018-06-05T09:03:33.971Z,101419.58
2018-06-05T09:06:03.061Z,101422.34
2018-06-05T09:08:33.002Z,101426.92
2018-06-05T09:11:02.732Z,101426.02
2018-06-05T09:13:32.406Z,101426.65
2018-06-05T09:16:01.473Z,101428.59
2018-06-05T09:18:30.729Z,101425.83
2018-06-05T09:20:59.911Z,101424.48
2018-06-05T09:23:28.730Z,101422.19
2018-06-05T09:25:57.691Z,101427.44
2018-06-05T09:28:27.173Z,101428.93
2018-06-05T09:30:56.040Z,101434.66
2018-06-05T09:33:25.053Z,101439.90
2018-06-05T09:35:54.278Z,101432.36
2018-06-05T09:38:23.049Z,101432.69
2018-06-05T09:40:52.186Z,101430.52
2018-06-05T09:43:21.355Z,101422.14
2018-06-05T09:45:51.303Z,101430.26
2018-06-05T09:48:20.866Z,101429.23
2018-06-05T09:50:50.116Z,101437.70
2018-06-05T09:53:19.821Z,101431.62
2018-06-05T09:55:48.990Z,101437.30
2018-06-05T09:58:18.179Z,101433.25
2018-06-05T10:00:53.484Z,101430.62
2018-06-05T10:03:22.869Z,101429.66
2018-06-05T10:05:52.195Z,101429.19
2018-06-05T10:08:21.736Z,101425.22
2018-06-05T10:10:50.727Z,101429.03
2018-06-05T10:13:19.831Z,101430.98
2018-06-05T10:15:48.893Z,101429.19
2018-06-05T10:18:18.261Z,101430.44
2018-06-05T10:20:48.051Z,101430.16
2018-06-05T10:23:16.996Z,101425.01
2018-06-05T10:25:45.953Z,101427.17
2018-06-05T10:28:15.203Z,101422.92
2018-06-05T10:30:44.340Z,101426.79
2018-06-05T10:33:13.875Z,101422.77
2018-06-05T10:35:43.116Z,101425.69
2018-06-05T10:38:12.019Z,101421.78
2018-06-05T10:40:41.351Z,101423.02
2018-06-05T10:43:10.831Z,101421.80
2018-06-05T10:45:40.316Z,101421.73
2018-06-05T10:48:09.378Z,101425.12
2018-06-05T10:50:39.660Z,101426.14
2018-06-05T10:53:09.357Z,101429.87
2018-06-05T10:55:39.053Z,101428.44
2018-06-05T10:58:09.177Z,101424.00
2018-06-05T11:00:38.370Z,101424.53
2018-06-05T11:03:07.853Z,101418.66
2018-06-05T11:05:37.493Z,101420.25
2018-06-05T11:08:06.518Z,101422.69
2018-06-05T11:10:35.501Z,101410.80
2018-06-05T11:13:05.071Z,101420.53
2018-06-05T11:15:34.059Z,101416.76
2018-06-05T11:18:02.879Z,101424.58
2018-06-05T11:20:31.868Z,101421.31
2018-06-05T11:23:01.535Z,101424.48
2018-06-05T11:25:31.696Z,101419.43
2018-06-05T11:28:01.091Z,101412.82
2018-06-05T11:30:31.206Z,101413.14
2018-06-05T11:33:00.236Z,101415.34
2018-06-05T11:35:29.638Z,101409.84
2018-06-05T11:37:58.618Z,101408.23
2018-06-05T11:40:28.093Z,101407.80
2018-06-05T11:42:57.128Z,101406.22
2018-06-05T11:45:26.200Z,101406.64
2018-06-05T11:47:55.441Z,101403.36
2018-06-05T11:50:24.805Z,101402.55
2018-06-05T11:52:53.766Z,101398.48
2018-06-05T11:55:23.225Z,101399.03
2018-06-05T11:57:52.588Z,101397.13
2018-06-05T12:00:22.251Z,101397.24
2018-06-05T12:03:01.373Z,101393.82
2018-06-05T12:05:30.311Z,101397.30
2018-06-05T12:07:59.558Z,101390.76
2018-06-05T12:10:28.725Z,101396.20
2018-06-05T12:12:57.836Z,101397.75
2018-06-05T12:15:26.655Z,101396.99
2018-06-05T12:17:55.496Z,101395.94
2018-06-05T12:20:24.590Z,101389.70
2018-06-05T12:22:53.356Z,101386.55
2018-06-05T12:25:22.750Z,101382.38
2018-06-05T12:27:51.574Z,101389.98
2018-06-05T12:30:20.636Z,101383.25
2018-06-05T12:32:50.730Z,101374.59
2018-06-05T12:35:19.773Z,101376.13
2018-06-05T12:37:49.065Z,101377.64
2018-06-05T12:40:18.533Z,101369.69
2018-06-05T12:42:47.293Z,101362.82
2018-06-05T12:45:16.632Z,101363.68
2018-06-05T12:47:45.634Z,101362.55
2018-06-05T12:50:14.353Z,101361.94
2018-06-05T12:52:43.502Z,101360.88
2018-06-05T12:55:12.854Z,101355.80
2018-06-05T12:57:41.628Z,101361.28
2018-06-05T13:00:11.317Z,101350.28
2018-06-05T13:02:40.463Z,101347.12
2018-06-05T13:05:09.758Z,101345.98
2018-06-05T13:07:38.594Z,101350.17
2018-06-05T13:10:08.018Z,101342.86
2018-06-05T13:12:37.107Z,101340.50
2018-06-05T13:15:06.214Z,101348.85
2018-06-05T13:17:35.893Z,101349.66
2018-06-05T13:20:05.165Z,101343.08
2018-06-05T13:22:34.180Z,101336.13
2018-06-05T13:25:03.246Z,101338.25
2018-06-05T13:27:32.007Z,101335.41
2018-06-05T13:30:00.846Z,101327.94
2018-06-05T13:32:29.835Z,101331.47
2018-06-05T13:34:58.793Z,101336.84
2018-06-05T13:37:28.007Z,101327.30
2018-06-05T13:39:56.828Z,101330.64
2018-06-05T13:42:26.003Z,101333.09
2018-06-05T13:44:54.838Z,101335.23
2018-06-05T13:47:24.303Z,101336.20
2018-06-05T13:49:53.163Z,101333.02
2018-06-05T13:52:22.060Z,101329.48
2018-06-05T13:54:50.829Z,101332.72
2018-06-05T13:57:20.248Z,101331.03
2018-06-05T13:59:49.906Z,101334.02
2018-06-05T14:02:18.804Z,101328.97
2018-06-05T14:04:48.112Z,101325.16
2018-06-05T14:07:17.146Z,101325.19
2018-06-05T14:09:45.952Z,101312.61
2018-06-05T14:12:16.742Z,101318.96
2018-06-05T14:14:46.270Z,101320.25
2018-06-05T14:17:15.371Z,101327.59
2018-06-05T14:19:44.605Z,101319.52
2018-06-05T14:22:13.921Z,101322.41
2018-06-05T14:24:43.308Z,101315.52
2018-06-05T14:27:12.521Z,101314.69
2018-06-05T14:29:41.596Z,101311.16
2018-06-05T14:32:10.490Z,101306.90
2018-06-05T14:34:39.588Z,101308.23
2018-06-05T14:37:08.960Z,101298.48
2018-06-05T14:39:37.819Z,101289.66
2018-06-05T14:42:07.366Z,101294.77
2018-06-05T14:44:36.972Z,101305.16
2018-06-05T14:47:06.474Z,101301.96
2018-06-05T14:49:36.246Z,101298.74
2018-06-05T14:52:05.090Z,101298.11
2018-06-05T14:54:34.451Z,101303.38
2018-06-05T14:57:03.680Z,101291.49
2018-06-05T14:59:32.778Z,101297.66
2018-06-05T15:02:01.904Z,101297.48
2018-06-05T15:04:31.064Z,101300.75
2018-06-05T15:07:00.472Z,101300.35
2018-06-05T15:09:29.675Z,101291.54
2018-06-05T15:11:59.071Z,101293.69
2018-06-05T15:14:28.178Z,101287.24
2018-06-05T15:16:57.666Z,101292.86
2018-06-05T15:19:26.486Z,101287.07
2018-06-05T15:21:55.648Z,101282.94
2018-06-05T15:24:25.102Z,101280.48
2018-06-05T15:26:54.677Z,101278.41
2018-06-05T15:29:23.893Z,101276.80
2018-06-05T15:31:53.297Z,101272.49
2018-06-05T15:34:22.149Z,101273.55
2018-06-05T15:36:51.373Z,101272.38
2018-06-05T15:39:20.238Z,101273.55
2018-06-05T15:41:49.312Z,101267.51
2018-06-05T15:44:18.583Z,101271.08
2018-06-05T15:46:48.080Z,101266.72
2018-06-05T15:49:16.943Z,101275.71
2018-06-05T15:51:46.404Z,101275.34
2018-06-05T15:54:15.884Z,101264.94
2018-06-05T15:56:45.084Z,101267.41
2018-06-05T15:59:14.135Z,101256.31
2018-06-05T16:01:43.004Z,101263.79
2018-06-05T16:04:12.360Z,101262.91
2018-06-05T16:06:41.598Z,101266.48
2018-06-05T16:09:10.965Z,101262.92
2018-06-05T16:11:40.479Z,101267.45
2018-06-05T16:14:09.591Z,101260.49
2018-06-05T16:16:38.405Z,101260.69
2018-06-05T16:19:07.286Z,101259.70
2018-06-05T16:21:36.098Z,101261.42
2018-06-05T16:24:05.572Z,101258.10
2018-06-05T16:26:34.437Z,101251.73
2018-06-05T16:29:03.306Z,101251.28
2018-06-05T16:31:32.814Z,101253.66
2018-06-05T16:34:01.656Z,101247.06
2018-06-05T16:36:30.819Z,101250.81
2018-06-05T16:39:00.506Z,101247.63
2018-06-05T16:41:30.135Z,101254.95
2018-06-05T16:43:59.525Z,101251.96
2018-06-05T16:46:28.381Z,101259.69
2018-06-05T16:48:57.248Z,101253.20
2018-06-05T16:51:26.526Z,101257.41
2018-06-05T16:53:56.013Z,101261.42
2018-06-05T16:56:25.215Z,101254.51
2018-06-05T16:58:55.207Z,101250.75
2018-06-05T17:01:24.046Z,101254.16
2018-06-05T17:03:53.227Z,101255.38
2018-06-05T17:06:22.578Z,101251.59
2018-06-05T17:08:51.458Z,101243.27
2018-06-05T17:11:20.525Z,101238.52
2018-06-05T17:13:49.895Z,101247.05
2018-06-05T17:16:19.467Z,101246.05
2018-06-05T17:18:49.114Z,101254.56
2018-06-05T17:21:17.981Z,101249.41
2018-06-05T17:23:46.866Z,101245.42
2018-06-05T17:26:16.005Z,101240.63
2018-06-05T17:28:44.868Z,101240.33
2018-06-05T17:31:14.293Z,101245.81
2018-06-05T17:33:43.952Z,101245.98
2018-06-05T17:36:13.521Z,101237.84
2018-06-05T17:38:44.094Z,101239.16
2018-06-05T17:41:14.559Z,101242.78
2018-06-05T17:43:44.589Z,101248.06
2018-06-05T17:46:14.036Z,101246.76
2018-06-05T17:48:43.491Z,101246.44
2018-06-05T17:51:12.914Z,101242.69
2018-06-05T17:53:42.120Z,101243.13
2018-06-05T17:56:11.393Z,101238.56
2018-06-05T17:58:40.684Z,101247.11
2018-06-05T18:01:10.029Z,101244.28
2018-06-05T18:03:38.909Z,101250.37
2018-06-05T18:06:08.356Z,101254.77
2018-06-05T18:08:37.827Z,101257.13
2018-06-05T18:11:06.752Z,101252.41
2018-06-05T18:13:35.922Z,101253.36
2018-06-05T18:16:04.803Z,101253.83
2018-06-05T18:18:34.218Z,101254.06
2018-06-05T18:21:04.026Z,101263.92
2018-06-05T18:23:33.264Z,101260.58
2018-06-05T18:26:02.132Z,101267.84
2018-06-05T18:28:31.492Z,101266.03
2018-06-05T18:31:00.887Z,101270.39
2018-06-05T18:33:29.720Z,101267.78
2018-06-05T18:35:58.587Z,101262.83
2018-06-05T18:38:28.205Z,101268.53
2018-06-05T18:40:56.996Z,101262.94
2018-06-05T18:43:25.825Z,101265.30
2018-06-05T18:45:55.541Z,101261.45
2018-06-05T18:48:24.908Z,101263.86
2018-06-05T18:50:54.044Z,101257.11
2018-06-05T18:53:24.164Z,101262.77
2018-06-05T18:55:53.358Z,101270.66
2018-06-05T18:58:22.591Z,101277.73
2018-06-05T19:00:51.458Z,101277.58
2018-06-05T19:03:20.847Z,101272.70
2018-06-05T19:05:50.184Z,101279.50
2018-06-05T19:08:19.603Z,101276.24
2018-06-05T19:10:48.730Z,101280.09
2018-06-05T19:13:18.063Z,101288.44
2018-06-05T19:15:46.913Z,101299.14
2018-06-05T19:18:16.181Z,101303.54
2018-06-05T19:20:45.325Z,101296.56
2018-06-05T19:23:14.194Z,101304.44
2018-06-05T19:25:44.176Z,101301.52
2018-06-05T19:28:13.372Z,101301.42
2018-06-05T19:30:42.538Z,101302.66
2018-06-05T19:33:11.655Z,101305.70
2018-06-05T19:35:40.768Z,101307.84
2018-06-05T19:38:09.637Z,101310.16
2018-06-05T19:40:38.972Z,101313.86
2018-06-05T19:43:07.782Z,101314.95
2018-06-05T19:45:36.847Z,101321.63
2018-06-05T19:48:06.015Z,101318.08
2018-06-05T19:50:35.209Z,101321.87
2018-06-05T19:53:04.392Z,101323.09
2018-06-05T19:55:33.745Z,101326.55
2018-06-05T19:58:03.294Z,101325.06
2018-06-05T20:00:32.338Z,101328.73
2018-06-05T20:03:01.689Z,101326.69
2018-06-05T20:05:31.207Z,101324.99
2018-06-05T20:08:00.348Z,101337.09
2018-06-05T20:10:29.251Z,101332.86
2018-06-05T20:12:58.128Z,101339.47
2018-06-05T20:15:27.649Z,101338.67
2018-06-05T20:17:57.136Z,101339.23
2018-06-05T20:20:26.385Z,101344.04
2018-06-05T20:22:55.558Z,101344.60
2018-06-05T20:25:24.574Z,101342.08
2018-06-05T20:27:54.197Z,101346.06
2018-06-05T20:30:24.047Z,101349.25
2018-06-05T20:32:53.869Z,101349.81
2018-06-05T20:35:22.955Z,101351.05
2018-06-05T20:37:51.779Z,101351.95
2018-06-05T20:40:20.644Z,101360.48
2018-06-05T20:42:49.624Z,101360.09
2018-06-05T20:45:19.194Z,101366.43
2018-06-05T20:47:48.341Z,101359.23
2018-06-05T20:50:17.814Z,101358.41
2018-06-05T20:52:46.635Z,101357.00
2018-06-05T20:55:15.554Z,101365.90
2018-06-05T20:57:44.429Z,101366.33
2018-06-05T21:00:13.495Z,101373.81
2018-06-05T21:02:42.965Z,101378.66
2018-06-05T21:05:12.521Z,101377.13
2018-06-05T21:07:41.719Z,101395.36
2018-06-05T21:10:10.621Z,101387.33
2018-06-05T21:12:39.571Z,101381.50
2018-06-05T21:15:08.818Z,101384.28
2018-06-05T21:17:38.009Z,101383.83
2018-06-05T21:20:06.990Z,101382.77
2018-06-05T21:22:36.096Z,101380.94
2018-06-05T21:25:05.275Z,101385.80
2018-06-05T21:27:34.555Z,101387.02
2018-06-05T21:30:03.392Z,101383.02
2018-06-05T21:32:32.559Z,101388.81
2018-06-05T21:35:01.858Z,101390.73
2018-06-05T21:37:30.689Z,101387.78
2018-06-05T21:39:59.850Z,101384.80
2018-06-05T21:42:28.945Z,101386.50
2018-06-05T21:44:58.090Z,101388.09
2018-06-05T21:47:27.387Z,101386.50
2018-06-05T21:49:56.543Z,101393.01
2018-06-05T21:52:25.685Z,101389.00
2018-06-05T21:54:55.322Z,101392.37
2018-06-05T21:57:24.571Z,101388.99
2018-06-05T21:59:53.674Z,101389.30
2018-06-05T22:02:22.827Z,101391.72
2018-06-05T22:04:51.661Z,101391.68
2018-06-05T22:07:21.075Z,101390.31
2018-06-05T22:09:50.551Z,101392.80
2018-06-05T22:12:19.732Z,101388.79
2018-06-05T22:14:49.411Z,101385.66
2018-06-05T22:17:18.445Z,101394.42
2018-06-05T22:19:47.552Z,101393.64
2018-06-05T22:22:16.357Z,101399.11
2018-06-05T22:24:45.992Z,101395.88
2018-06-05T22:27:14.782Z,101401.68
2018-06-05T22:29:43.568Z,101408.59
2018-06-05T22:32:13.066Z,101408.20
2018-06-05T22:34:41.955Z,101403.88
2018-06-05T22:37:10.742Z,101402.59
2018-06-05T22:39:40.093Z,101398.25
2018-06-05T22:42:09.510Z,101395.61
2018-06-05T22:44:38.596Z,101391.34
2018-06-05T22:47:07.525Z,101394.16
2018-06-05T22:49:37.077Z,101395.40
2018-06-05T22:52:06.227Z,101396.52
2018-06-05T22:54:36.089Z,101389.06
2018-06-05T22:57:04.923Z,101390.52
2018-06-05T22:59:35.307Z,101394.70
2018-06-05T23:02:04.473Z,101391.14
2018-06-05T23:04:34.222Z,101394.53
2018-06-05T23:07:03.357Z,101395.19
2018-06-05T23:09:32.149Z,101396.97
2018-06-05T23:12:01.511Z,101399.28
2018-06-05T23:14:30.596Z,101391.25
2018-06-05T23:17:00.335Z,101393.27
2018-06-05T23:19:29.573Z,101393.43
2018-06-05T23:21:58.487Z,101391.40
2018-06-05T23:24:27.894Z,101394.53
2018-06-05T23:26:57.171Z,101392.43
2018-06-05T23:29:26.059Z,101390.27
2018-06-05T23:31:55.635Z,101392.29
2018-06-05T23:34:24.566Z,101388.28
2018-06-05T23:36:53.391Z,101388.35
2018-06-05T23:39:22.847Z,101402.08
2018-06-05T23:41:51.914Z,101398.31
2018-06-05T23:44:21.040Z,101395.73
2018-06-05T23:46:50.198Z,101397.42
2018-06-05T23:49:19.222Z,101393.80
2018-06-05T23:51:48.789Z,101397.66
2018-06-05T23:54:17.819Z,101386.81
2018-06-05T23:56:47.013Z,101389.30
2018-06-05T23:59:15.979Z,101392.91
